Aérodrome :
LOGIN :

S'inscrire | Disclaimer

   EN    FR    IT 

 










Légende :    VFR   VFR Marginal   IFR   IFR Intensif   IFR Très Intensif
Visi : 
Plafond : 
>= 8 km
>= 3000ft
5 à 8 km
1000 à 3000 ft
1500m à 5 km
500 à 1000 ft
800 à 1500m
200 à 500 ft
< 800m
< 200 ft
Symboles :   Orages  Brouillard  Fortes neiges  Fortes précipitations  Vent > 20 kt
SIGMETs :   Divers  Orages  Givrage  Turbulence  Onde Orograph.  Cendres Volcan.







- Altitude de l'aérodrome : 74 ft
- Code IATA : EIN


EHEH - Eindhoven

DERNIER METAR :
  • 230455Z AUTO 19016G26KT 160V220 9999 FEW040 SCT071 BKN079 13/04 Q0997 BLU

METARs EXPIRÉS :
  • 230425Z AUTO 19015G26KT 9999 OVC120 12/04 Q0997 BLU
  • 230355Z AUTO 19013G25KT 160V220 9999 OVC140 12/04 Q0998 BLU
  • 230325Z AUTO 19013KT 160V230 9999 SCT130 12/04 Q0998 BLU
  • 230255Z AUTO 19012KT 150V220 9999 OVC110 12/03 Q0998 BLU
  • 230225Z AUTO 18012KT 150V230 9999 BKN120 OVC260 12/04 Q0998 BLU

TAF TAF EHEH
Valide du 23 à 00h jusqu'au 24 à 06h UTC


222349Z 2300/2406 19013KT CAVOK
BECMG 2301/2303 20020G33KT
BECMG 2310/2313 BKN020
TEMPO 2312/2318 21020G40KT 4500 SHRA FEW012 SCT015CB BKN018
BECMG 2316/2319 20008KT
BECMG 2400/2402 VRB02KT
TEMPO 2400/24064500 RA RADZ SCT015 BKN018
PROB30
TEMPO 2403/2406 VRB10G20KT 3000 SHRA TSRA SCT010 SCT020CB BKN020
Pas de NOTAMs connus pour ce terrain.



MET'MAP, la Météo Aéronautique d'un coup d'oeil ! - Copyright ORBIFLY Décembre 2007 - Disclaimer

ORBIFLY MET'MAP TEAM :

Programmation & Développement : Alexandra Zaïnal
Conception & Développement : Baudouin d'Aumeries
Co-Programmation & Développement : Marc-Olivier Méhu
Soutien technique & logistique : Manuel Goepfert

Contact : metmap@orbifly.com




SOURCES & CREDITS :

   NOAA